Time;durP1;ratioP1;P1;durP2;ratioP2;P2;SDS_P1;SDS_P2;PMS_P1;PMS_P2;Temp;Humidity;BMP_temperature;BMP_pressure;BME280_temperature;BME280_humidity;BME280_pressure;Samples;Min_cycle;Max_cycle;Signal;HPM_P1;HPM_P2
2022/08/10 00:00:50;;;;;;;11.52;6.82;;;;;;;;;;5064673;28;20424;-74
2022/08/10 00:03:17;;;;;;;8.23;6.60;;;16.30;99.90;;;;;;5072695;28;20399;-74
2022/08/10 00:05:43;;;;;;;10.70;6.80;;;;;;;;;;5071723;28;20935;-74
2022/08/10 00:08:09;;;;;;;8.68;6.60;;;;;;;;;;5070131;28;20804;-74
2022/08/10 00:10:35;;;;;;;8.70;6.83;;;;;;;;;;5081814;28;20925;-74
2022/08/10 00:13:01;;;;;;;7.43;6.28;;;16.20;99.90;;;;;;5059985;28;20423;-74
2022/08/10 00:15:26;;;;;;;9.83;6.77;;;16.10;99.90;;;;;;5070647;28;20420;-74
2022/08/10 00:17:52;;;;;;;10.10;7.10;;;15.90;99.90;;;;;;5038813;28;20419;-74
2022/08/10 00:20:18;;;;;;;9.70;6.43;;;16.30;99.90;;;;;;5069574;28;20520;-73
2022/08/10 00:22:44;;;;;;;8.43;6.65;;;;;;;;;;5072355;28;20399;-73
2022/08/10 00:25:10;;;;;;;8.07;6.90;;;;;;;;;;5068604;28;20485;-74
2022/08/10 00:27:36;;;;;;;7.72;6.40;;;16.10;99.90;;;;;;5070135;28;20903;-74
2022/08/10 00:30:03;;;;;;;9.38;6.20;;;16.00;99.90;;;;;;5070494;28;20430;-74
2022/08/10 00:32:29;;;;;;;8.75;6.72;;;;;;;;;;5071897;28;20400;-73
2022/08/10 00:34:55;;;;;;;7.72;6.65;;;;;;;;;;5084110;28;20423;-73
2022/08/10 00:37:21;;;;;;;7.75;6.72;;;15.90;99.90;;;;;;5054326;28;20423;-74
2022/08/10 00:39:47;;;;;;;7.32;6.40;;;;;;;;;;5085427;28;20498;-74
2022/08/10 00:42:14;;;;;;;8.55;6.75;;;;;;;;;;5053697;28;20424;-74
2022/08/10 00:44:45;;;;;;;8.20;6.55;;;15.70;99.90;;;;;;5086026;28;20835;-74
2022/08/10 00:47:12;;;;;;;7.45;6.55;;;;;;;;;;5070257;28;20510;-74
2022/08/10 00:49:38;;;;;;;8.73;6.65;;;15.70;99.90;;;;;;5052718;28;20781;-74
2022/08/10 00:52:04;;;;;;;10.75;7.20;;;15.50;99.90;;;;;;5070784;28;20518;-74
2022/08/10 00:54:31;;;;;;;8.57;7.10;;;;;;;;;;5069308;28;20419;-74
2022/08/10 00:56:57;;;;;;;9.40;6.95;;;;;;;;;;5071017;28;20510;-74
2022/08/10 00:59:23;;;;;;;8.80;6.93;;;;;;;;;;5071372;28;20403;-73
2022/08/10 01:01:49;;;;;;;9.90;7.28;;;15.60;99.90;;;;;;5086985;28;20469;-74
2022/08/10 01:04:15;;;;;;;10.23;7.50;;;;;;;;;;5088412;28;20407;-73
2022/08/10 01:06:50;;;;;;;10.52;7.30;;;;;;;;;;5073366;28;20491;-74
2022/08/10 01:09:23;;;;;;;9.63;7.13;;;;;;;;;;5087556;28;20423;-74
2022/08/10 01:12:07;;;;;;;12.00;7.80;;;15.70;99.90;;;;;;5069069;28;20431;-74
2022/08/10 01:14:52;;;;;;;13.48;10.07;;;;;;;;;;5070092;28;20419;-74
2022/08/10 01:17:38;;;;;;;12.13;8.73;;;;;;;;;;5070980;28;20486;-74
2022/08/10 01:20:13;;;;;;;11.70;8.10;;;;;;;;;;5044287;28;20806;-74
2022/08/10 01:22:50;;;;;;;12.55;8.60;;;;;;;;;;5090295;28;20455;-74
2022/08/10 01:25:16;;;;;;;12.30;8.00;;;;;;;;;;5069837;28;20423;-74
2022/08/10 01:27:42;;;;;;;11.05;7.72;;;;;;;;;;5069094;28;20424;-74
2022/08/10 01:30:13;;;;;;;12.00;8.88;;;;;;;;;;5103404;28;20475;-74
2022/08/10 01:32:42;;;;;;;12.30;9.15;;;;;;;;;;5067484;28;20431;-74
2022/08/10 01:35:13;;;;;;;13.50;9.65;;;;;;;;;;5086599;28;20522;-75
2022/08/10 01:37:45;;;;;;;10.15;8.30;;;15.30;99.90;;;;;;5070529;28;20419;-74
2022/08/10 01:40:13;;;;;;;10.90;8.85;;;15.20;99.90;;;;;;5065540;28;20416;-74
2022/08/10 01:42:40;;;;;;;10.45;8.50;;;;;;;;;;5069649;28;20431;-74
2022/08/10 01:45:09;;;;;;;13.43;9.63;;;15.30;99.90;;;;;;5086461;28;20458;-74
2022/08/10 01:50:28;;;;;;;11.23;9.32;;;;;;;;;;5102747;28;20907;-74
2022/08/10 01:52:56;;;;;;;12.63;9.33;;;;;;;;;;5085672;28;20439;-74
2022/08/10 01:55:23;;;;;;;13.43;9.93;;;;;;;;;;5052907;28;20427;-74
2022/08/10 01:57:50;;;;;;;13.27;10.25;;;;;;;;;;5072239;28;20430;-74
2022/08/10 02:00:16;;;;;;;13.68;10.13;;;;;;;;;;5070782;28;20417;-74
2022/08/10 02:02:44;;;;;;;14.80;10.70;;;15.20;99.90;;;;;;5055784;28;20462;-74
2022/08/10 02:05:12;;;;;;;13.38;9.82;;;15.20;99.90;;;;;;5072956;28;20487;-73
2022/08/10 02:07:38;;;;;;;12.48;10.40;;;;;;;;;;5071337;28;20425;-74
2022/08/10 02:10:09;;;;;;;14.65;11.63;;;15.10;99.90;;;;;;5106588;28;20841;-74
2022/08/10 02:12:36;;;;;;;14.90;11.38;;;15.20;99.90;;;;;;5072539;28;20477;-74
2022/08/10 02:15:05;;;;;;;14.10;10.93;;;;;;;;;;5066119;28;20426;-74
2022/08/10 02:17:37;;;;;;;16.35;10.95;;;15.10;99.90;;;;;;5107197;28;20426;-74
2022/08/10 02:20:05;;;;;;;14.57;10.30;;;;;;;;;;5071948;28;21050;-73
2022/08/10 02:22:32;;;;;;;13.75;10.50;;;;;;;;;;5086491;28;20405;-73
2022/08/10 02:25:00;;;;;;;15.95;10.45;;;15.00;99.90;;;;;;5072359;28;20424;-74
2022/08/10 02:27:27;;;;;;;14.98;11.02;;;;;;;;;;5073380;28;20409;-73
2022/08/10 02:29:54;;;;;;;13.98;10.20;;;15.10;99.90;;;;;;5056508;28;20398;-73
2022/08/10 02:32:23;;;;;;;12.30;9.57;;;;;;;;;;5071888;28;20762;-73
2022/08/10 02:34:50;;;;;;;14.77;10.27;;;15.00;99.90;;;;;;5071493;28;20429;-73
2022/08/10 02:37:20;;;;;;;15.68;11.15;;;15.10;99.90;;;;;;5072117;28;20414;-73
2022/08/10 02:39:46;;;;;;;14.43;10.48;;;15.00;99.90;;;;;;5106156;28;20418;-73
2022/08/10 02:42:23;;;;;;;14.15;10.45;;;;;;;;;;5088391;28;20440;-73
2022/08/10 02:45:11;;;;;;;14.52;10.30;;;15.00;99.90;;;;;;5090306;28;20450;-74
2022/08/10 02:47:42;;;;;;;13.85;10.60;;;15.10;99.90;;;;;;5075269;28;20414;-73
2022/08/10 02:50:14;;;;;;;15.70;10.55;;;;;;;;;;5056822;28;20716;-74
2022/08/10 02:52:51;;;;;;;15.57;11.13;;;15.10;99.90;;;;;;5087833;28;20505;-74
2022/08/10 02:55:39;;;;;;;14.82;10.80;;;15.10;99.90;;;;;;5071341;28;20456;-74
2022/08/10 02:58:08;;;;;;;14.38;10.13;;;;;;;;;;5071752;28;20430;-74
2022/08/10 03:00:43;;;;;;;14.18;10.05;;;15.00;99.90;;;;;;5069681;28;20425;-74
2022/08/10 03:03:14;;;;;;;13.97;9.90;;;;;;;;;;5061733;28;20417;-74
2022/08/10 03:05:41;;;;;;;12.93;9.07;;;14.90;99.90;;;;;;5072644;28;20418;-74
2022/08/10 03:08:11;;;;;;;12.85;8.93;;;14.70;99.90;;;;;;5110804;28;20413;-74
2022/08/10 03:10:41;;;;;;;11.90;8.60;;;14.50;99.90;;;;;;5076781;28;20404;-74
2022/08/10 03:13:09;;;;;;;14.63;8.88;;;;;;;;;;5073567;28;20424;-74
2022/08/10 03:15:36;;;;;;;13.60;9.60;;;;;;;;;;5072942;28;20501;-74
2022/08/10 03:18:04;;;;;;;15.93;10.70;;;14.80;99.90;;;;;;5093503;28;20838;-74
2022/08/10 03:20:34;;;;;;;16.23;11.13;;;14.80;99.90;;;;;;5078528;28;20422;-74
2022/08/10 03:23:01;;;;;;;19.65;12.52;;;14.80;99.90;;;;;;5075544;28;20414;-74
2022/08/10 03:25:29;;;;;;;16.77;11.93;;;14.80;99.90;;;;;;5074986;28;20824;-74
2022/08/10 03:27:56;;;;;;;18.15;12.45;;;;;;;;;;5068440;28;20453;-73
2022/08/10 03:30:22;;;;;;;18.52;13.25;;;;;;;;;;5059435;28;20481;-74
2022/08/10 03:32:49;;;;;;;18.93;13.37;;;;;;;;;;5067233;28;20433;-74
2022/08/10 03:35:16;;;;;;;18.90;12.55;;;14.50;99.90;;;;;;5073756;28;20430;-74
2022/08/10 03:37:42;;;;;;;18.83;12.80;;;;;;;;;;5073914;28;20421;-74
2022/08/10 03:40:08;;;;;;;17.23;12.40;;;;;;;;;;5091518;28;20797;-74
2022/08/10 03:42:37;;;;;;;18.73;12.95;;;14.60;99.90;;;;;;5058204;28;20828;-74
2022/08/10 03:45:05;;;;;;;18.40;12.60;;;14.80;99.90;;;;;;5062754;28;20469;-73
2022/08/10 03:47:32;;;;;;;20.63;12.90;;;14.30;99.90;;;;;;5072804;28;20413;-74
2022/08/10 03:50:00;;;;;;;18.20;12.55;;;;;;;;;;5075293;28;20445;-73
2022/08/10 03:52:26;;;;;;;18.50;12.77;;;;;;;;;;5078468;28;20426;-73
2022/08/10 03:54:53;;;;;;;21.67;13.57;;;14.20;99.90;;;;;;5073317;28;20500;-73
2022/08/10 03:57:22;;;;;;;21.20;13.50;;;14.40;99.90;;;;;;5091579;28;20785;-74
2022/08/10 03:59:48;;;;;;;19.35;12.57;;;;;;;;;;5075141;28;20418;-73
2022/08/10 04:02:15;;;;;;;22.15;13.80;;;14.50;99.90;;;;;;5085587;28;20937;-73
2022/08/10 04:04:40;;;;;;;20.30;13.73;;;14.50;99.90;;;;;;5055628;28;20421;-73
2022/08/10 04:07:07;;;;;;;22.30;14.43;;;;;;;;;;5058125;28;20422;-73
2022/08/10 04:09:34;;;;;;;21.35;14.32;;;14.60;99.90;;;;;;5045698;28;20419;-73
2022/08/10 04:12:01;;;;;;;20.13;13.60;;;;;;;;;;5046122;28;20450;-73
2022/08/10 04:14:27;;;;;;;17.98;12.98;;;;;;;;;;5070991;28;20766;-74
2022/08/10 04:16:53;;;;;;;21.13;13.68;;;;;;;;;;5074170;28;20499;-74
2022/08/10 04:19:19;;;;;;;19.88;13.25;;;;;;;;;;5075012;28;20688;-73
2022/08/10 04:22:10;;;;;;;22.65;14.48;;;14.20;99.90;;;;;;5093251;28;20475;-73
2022/08/10 04:24:38;;;;;;;21.08;14.02;;;14.30;99.90;;;;;;5106953;28;20431;-74
2022/08/10 04:27:04;;;;;;;22.35;14.15;;;14.50;99.90;;;;;;5078320;28;20495;-73
2022/08/10 04:29:30;;;;;;;20.83;13.10;;;;;;;;;;5073374;28;20836;-74
2022/08/10 04:31:56;;;;;;;21.55;13.45;;;;;;;;;;5106973;28;20417;-73
2022/08/10 04:34:23;;;;;;;21.70;13.20;;;;;;;;;;5105965;28;20843;-73
2022/08/10 04:36:51;;;;;;;21.63;14.05;;;14.20;99.90;;;;;;5089164;28;21267;-73
2022/08/10 04:39:17;;;;;;;20.53;13.47;;;;;;;;;;5108128;28;20410;-74
2022/08/10 04:41:44;;;;;;;21.50;13.90;;;;;;;;;;5056491;28;20420;-73
2022/08/10 04:44:10;;;;;;;19.93;13.33;;;;;;;;;;5071336;28;21123;-73
2022/08/10 04:46:36;;;;;;;20.92;13.18;;;;;;;;;;5056980;28;20479;-74
2022/08/10 04:49:02;;;;;;;22.08;14.07;;;;;;;;;;5101943;28;20427;-74
2022/08/10 04:51:28;;;;;;;22.90;13.90;;;;;;;;;;5075248;28;20742;-73
2022/08/10 04:53:54;;;;;;;22.02;13.35;;;;;;;;;;5088335;28;20510;-73
2022/08/10 04:56:21;;;;;;;21.23;14.23;;;;;;;;;;5089967;28;20426;-73
2022/08/10 04:58:47;;;;;;;20.57;14.20;;;;;;;;;;5105933;28;20465;-74
2022/08/10 05:01:14;;;;;;;21.30;13.70;;;;;;;;;;5105170;28;20940;-73
2022/08/10 05:03:39;;;;;;;23.80;14.07;;;14.50;99.90;;;;;;5072371;28;20413;-73
2022/08/10 05:06:06;;;;;;;22.60;14.80;;;;;;;;;;5072352;28;20428;-74
2022/08/10 05:08:32;;;;;;;24.67;15.80;;;;;;;;;;5070633;28;20779;-74
2022/08/10 05:10:58;;;;;;;24.73;15.80;;;;;;;;;;5074858;28;20727;-74
2022/08/10 05:13:24;;;;;;;25.73;16.57;;;;;;;;;;5057191;28;20878;-74
2022/08/10 05:15:50;;;;;;;28.10;16.85;;;;;;;;;;5053384;28;20423;-74
2022/08/10 05:18:17;;;;;;;24.77;16.73;;;;;;;;;;5071942;28;20416;-73
2022/08/10 05:20:42;;;;;;;23.55;16.15;;;15.00;99.90;;;;;;5104128;28;20426;-73
2022/08/10 05:23:08;;;;;;;27.65;16.65;;;;;;;;;;5105735;28;20429;-73
2022/08/10 05:25:34;;;;;;;24.90;15.65;;;;;;;;;;5074883;28;20417;-73
2022/08/10 05:28:00;;;;;;;26.15;17.10;;;15.20;99.90;;;;;;5105033;28;20422;-73
2022/08/10 05:30:26;;;;;;;27.63;16.35;;;15.40;99.90;;;;;;5072639;28;20463;-73
2022/08/10 05:32:52;;;;;;;25.50;15.30;;;;;;;;;;5071738;28;20493;-72
2022/08/10 05:35:18;;;;;;;27.37;16.43;;;;;;;;;;5105069;27;20436;-72
2022/08/10 05:37:45;;;;;;;23.25;16.05;;;15.30;99.90;;;;;;5055718;28;20500;-73
2022/08/10 05:40:11;;;;;;;23.60;15.50;;;15.40;99.90;;;;;;5057220;28;20430;-73
2022/08/10 05:42:37;;;;;;;20.98;15.13;;;;;;;;;;5073990;28;20404;-73
2022/08/10 05:45:03;;;;;;;24.33;15.77;;;15.80;99.90;;;;;;5056820;28;20399;-73
2022/08/10 05:47:30;;;;;;;21.90;15.30;;;;;;;;;;5075391;28;20516;-73
2022/08/10 05:49:56;;;;;;;22.83;14.85;;;;;;;;;;5107959;28;20893;-73
2022/08/10 05:52:23;;;;;;;22.58;14.20;;;;;;;;;;5074167;28;20408;-73
2022/08/10 05:54:49;;;;;;;21.83;15.07;;;;;;;;;;5090131;28;20914;-72
2022/08/10 05:57:18;;;;;;;18.60;13.35;;;16.50;99.90;;;;;;5054090;28;20422;-73
2022/08/10 05:59:48;;;;;;;21.33;14.27;;;16.50;99.90;;;;;;5070576;28;20411;-72
2022/08/10 06:02:33;;;;;;;20.45;13.70;;;16.40;99.90;;;;;;5055899;28;20435;-73
2022/08/10 06:05:03;;;;;;;23.00;13.77;;;;;;;;;;5089225;28;20781;-72
2022/08/10 06:07:29;;;;;;;20.20;13.15;;;;;;;;;;5070335;28;20418;-72
2022/08/10 06:09:56;;;;;;;17.55;12.48;;;;;;;;;;5072822;28;20414;-73
2022/08/10 06:12:23;;;;;;;17.10;12.27;;;;;;;;;;5073448;28;20406;-74
2022/08/10 06:15:02;;;;;;;15.10;11.23;;;17.30;99.90;;;;;;5073474;28;20402;-73
2022/08/10 06:17:29;;;;;;;14.82;11.10;;;17.10;99.90;;;;;;5069259;28;20429;-73
2022/08/10 06:19:59;;;;;;;17.00;10.75;;;17.10;99.90;;;;;;5076409;28;20843;-73
2022/08/10 06:22:28;;;;;;;13.53;10.90;;;17.50;99.90;;;;;;5072342;28;20425;-73
2022/08/10 06:25:00;;;;;;;15.30;10.85;;;17.50;99.90;;;;;;5069532;28;20460;-73
2022/08/10 06:27:25;;;;;;;15.43;9.90;;;17.70;99.90;;;;;;5067991;28;20418;-73
2022/08/10 06:29:52;;;;;;;13.32;9.60;;;17.80;99.90;;;;;;5105516;28;20422;-73
2022/08/10 06:32:24;;;;;;;13.20;9.45;;;17.70;99.90;;;;;;5086792;28;20414;-74
2022/08/10 06:34:52;;;;;;;11.43;8.70;;;18.10;99.90;;;;;;5058470;28;20837;-74
2022/08/10 06:37:20;;;;;;;12.15;8.38;;;;;;;;;;5081527;28;20421;-74
2022/08/10 06:39:47;;;;;;;11.68;8.00;;;18.30;99.90;;;;;;5063634;28;20423;-74
2022/08/10 06:42:18;;;;;;;11.30;7.63;;;18.40;99.90;;;;;;5056270;28;20406;-74
2022/08/10 06:44:52;;;;;;;10.55;7.35;;;18.70;99.90;;;;;;5060422;28;20445;-73
2022/08/10 06:47:21;;;;;;;10.32;7.30;;;18.70;99.90;;;;;;5073413;28;20582;-74
2022/08/10 06:49:50;;;;;;;9.63;7.10;;;18.80;99.90;;;;;;5071625;28;20415;-73
2022/08/10 06:52:18;;;;;;;10.73;7.05;;;18.90;99.90;;;;;;5063342;28;20428;-74
2022/08/10 06:54:44;;;;;;;9.25;6.55;;;19.20;99.90;;;;;;5110496;28;20413;-73
2022/08/10 06:57:12;;;;;;;10.23;6.45;;;19.30;99.90;;;;;;5091072;28;20947;-73
2022/08/10 06:59:43;;;;;;;10.63;6.30;;;19.30;99.90;;;;;;5075998;28;20475;-73
2022/08/10 07:02:13;;;;;;;8.52;5.60;;;19.70;99.90;;;;;;5074456;28;20423;-74
2022/08/10 07:04:44;;;;;;;11.15;5.25;;;19.40;99.90;;;;;;5070460;28;20425;-74
2022/08/10 07:07:15;;;;;;;7.38;5.15;;;19.50;99.90;;;;;;5054383;28;20750;-74
2022/08/10 07:09:43;;;;;;;9.70;5.32;;;;;;;;;;5077529;28;20426;-74
2022/08/10 07:12:10;;;;;;;8.18;5.45;;;;;;;;;;5085130;28;20425;-74
2022/08/10 07:14:39;;;;;;;7.60;4.80;;;19.80;99.90;;;;;;5089501;28;20417;-74
2022/08/10 07:17:08;;;;;;;10.88;5.10;;;19.80;99.90;;;;;;5089176;28;20435;-74
2022/08/10 07:19:34;;;;;;;7.17;4.60;;;19.90;99.90;;;;;;5071511;28;20506;-74
2022/08/10 07:22:02;;;;;;;7.30;4.40;;;20.40;99.90;;;;;;5056728;28;20417;-74
2022/08/10 07:24:28;;;;;;;9.15;4.47;;;;;;;;;;5074008;28;20413;-74
2022/08/10 07:26:56;;;;;;;7.22;4.00;;;20.50;99.90;;;;;;5067024;28;20417;-74
2022/08/10 07:29:30;;;;;;;6.20;4.65;;;20.20;99.90;;;;;;5072217;28;20468;-75
2022/08/10 07:31:58;;;;;;;7.30;4.20;;;20.40;99.90;;;;;;5076267;28;20437;-74
2022/08/10 07:34:25;;;;;;;7.15;4.55;;;20.60;99.90;;;;;;5059202;28;20419;-74
2022/08/10 07:36:52;;;;;;;6.70;4.22;;;20.60;99.90;;;;;;5100713;28;20472;-75
2022/08/10 07:39:23;;;;;;;5.70;3.93;;;20.80;99.90;;;;;;5055111;28;20921;-74
2022/08/10 07:41:51;;;;;;;9.33;3.80;;;20.80;99.90;;;;;;5047595;28;20421;-74
2022/08/10 07:44:18;;;;;;;5.18;3.88;;;;;;;;;;5052870;28;20421;-74
2022/08/10 07:46:52;;;;;;;8.20;4.20;;;20.90;99.90;;;;;;5070434;28;20432;-74
2022/08/10 07:49:25;;;;;;;5.22;3.90;;;20.90;99.90;;;;;;5103711;28;20445;-74
2022/08/10 07:51:52;;;;;;;6.20;3.87;;;21.20;99.90;;;;;;5087278;28;20460;-74
2022/08/10 07:54:21;;;;;;;6.68;3.78;;;21.50;99.90;;;;;;5053816;28;20781;-74
2022/08/10 07:56:49;;;;;;;8.23;3.80;;;21.90;99.90;;;;;;5088959;28;20454;-74
2022/08/10 07:59:19;;;;;;;8.73;4.35;;;22.00;99.90;;;;;;5085385;28;20410;-74
2022/08/10 08:01:53;;;;;;;8.80;3.80;;;22.20;99.90;;;;;;5109050;28;20421;-74
2022/08/10 08:04:22;;;;;;;5.63;3.30;;;22.00;99.90;;;;;;5088253;28;20490;-74
2022/08/10 08:06:50;;;;;;;4.55;3.40;;;22.00;99.90;;;;;;5055054;28;20421;-75
2022/08/10 08:09:17;;;;;;;6.70;3.78;;;;;;;;;;5070999;28;20476;-74
2022/08/10 08:11:45;;;;;;;5.80;3.53;;;22.20;99.90;;;;;;5070187;28;20552;-74
2022/08/10 08:14:13;;;;;;;5.95;3.40;;;22.40;99.90;;;;;;5084502;28;20434;-74
2022/08/10 08:16:46;;;;;;;6.57;3.40;;;22.60;99.90;;;;;;5098235;28;20421;-74
2022/08/10 08:19:13;;;;;;;6.15;3.58;;;23.00;99.90;;;;;;5071274;28;20500;-74
2022/08/10 08:21:40;;;;;;;8.00;3.40;;;23.10;99.90;;;;;;5084603;28;20421;-74
2022/08/10 08:24:07;;;;;;;6.22;3.35;;;23.10;99.90;;;;;;5102541;28;20419;-75
2022/08/10 08:26:35;;;;;;;7.00;3.30;;;22.30;99.90;;;;;;5106178;28;20516;-75
2022/08/10 08:29:02;;;;;;;4.70;3.20;;;22.70;99.90;;;;;;5057865;28;20426;-74
2022/08/10 08:31:29;;;;;;;6.57;3.15;;;23.00;99.90;;;;;;5056010;28;20473;-74
2022/08/10 08:33:56;;;;;;;5.93;2.97;;;23.00;99.90;;;;;;5068043;28;20428;-75
2022/08/10 08:36:24;;;;;;;9.38;3.10;;;23.00;99.90;;;;;;5071308;28;20461;-74
2022/08/10 08:38:50;;;;;;;4.85;2.95;;;22.90;99.90;;;;;;5072329;28;20551;-74
2022/08/10 08:41:49;;;;;;;5.87;3.20;;;23.10;99.90;;;;;;5070033;28;20418;-75
2022/08/10 08:44:48;;;;;;;6.00;2.90;;;23.20;99.90;;;;;;5065105;28;20471;-74
2022/08/10 08:47:32;;;;;;;7.47;3.13;;;23.00;99.90;;;;;;5055452;28;20429;-74
2022/08/10 08:50:35;;;;;;;6.47;3.35;;;23.60;99.90;;;;;;5089576;28;20927;-75
2022/08/10 08:53:20;;;;;;;7.68;3.13;;;23.30;99.90;;;;;;5095434;28;20517;-75
2022/08/10 08:56:05;;;;;;;5.70;2.75;;;23.60;99.90;;;;;;5055383;28;20460;-76
2022/08/10 08:58:49;;;;;;;7.27;2.70;;;23.90;99.90;;;;;;5069011;28;20458;-75
2022/08/10 09:01:52;;;;;;;8.25;2.85;;;24.30;99.90;;;;;;5082018;28;20451;-75
2022/08/10 09:04:36;;;;;;;7.07;3.00;;;24.20;99.90;;;;;;5085177;28;20475;-75
2022/08/10 09:07:11;;;;;;;5.63;2.97;;;24.40;99.90;;;;;;5081037;28;20500;-75
2022/08/10 09:09:54;;;;;;;6.25;2.92;;;24.10;99.90;;;;;;5099039;28;20418;-75
2022/08/10 09:12:56;;;;;;;8.63;3.13;;;24.00;99.90;;;;;;5085712;28;20424;-74
2022/08/10 09:15:55;;;;;;;7.55;2.80;;;24.50;99.90;;;;;;5048464;28;20430;-75
2022/08/10 09:18:52;;;;;;;5.15;2.75;;;24.20;99.90;;;;;;5049749;28;20430;-74
2022/08/10 09:21:36;;;;;;;4.82;2.75;;;23.80;99.90;;;;;;5085031;28;20409;-74
2022/08/10 09:24:18;;;;;;;5.57;2.80;;;24.60;99.90;;;;;;5067449;28;20472;-74
2022/08/10 09:27:06;;;;;;;9.15;2.90;;;24.60;99.90;;;;;;5068386;28;20425;-73
2022/08/10 09:29:43;;;;;;;6.82;2.70;;;24.80;99.90;;;;;;5071735;28;20909;-74
2022/08/10 09:32:15;;;;;;;8.15;3.00;;;25.20;99.90;;;;;;5084922;28;20422;-74
2022/08/10 09:35:04;;;;;;;7.00;2.53;;;25.50;99.90;;;;;;5069434;28;20417;-74
2022/08/10 09:37:39;;;;;;;7.40;2.85;;;24.90;99.90;;;;;;5101176;28;20454;-74
2022/08/10 09:40:41;;;;;;;7.47;3.13;;;25.00;99.90;;;;;;5066454;28;20431;-74
2022/08/10 09:43:21;;;;;;;7.15;2.78;;;25.50;99.90;;;;;;5039124;28;20928;-75
2022/08/10 09:46:09;;;;;;;6.03;2.72;;;25.60;99.90;;;;;;5053628;28;20902;-74
2022/08/10 09:49:02;;;;;;;6.23;2.40;;;25.70;99.90;;;;;;5046843;28;20448;-74
2022/08/10 09:51:43;;;;;;;5.68;3.00;;;25.80;99.90;;;;;;5082844;28;20418;-74
2022/08/10 09:54:47;;;;;;;6.65;2.65;;;25.70;99.90;;;;;;5053456;28;20414;-74
2022/08/10 09:57:38;;;;;;;6.85;2.60;;;26.10;99.90;;;;;;5049805;28;21873;-74
2022/08/10 10:00:11;;;;;;;5.15;2.40;;;26.40;99.90;;;;;;5046554;28;20425;-74
2022/08/10 10:02:58;;;;;;;5.10;2.50;;;26.10;99.90;;;;;;5083546;28;20814;-74
2022/08/10 10:05:40;;;;;;;5.15;2.50;;;25.90;99.90;;;;;;5047419;28;20426;-75
2022/08/10 10:08:20;;;;;;;3.90;2.30;;;26.00;99.90;;;;;;5084883;28;20493;-75
2022/08/10 10:11:26;;;;;;;6.03;2.65;;;26.00;99.90;;;;;;5086115;28;20762;-75
2022/08/10 10:13:51;;;;;;;6.93;2.40;;;25.90;99.90;;;;;;5058913;28;20419;-75
2022/08/10 10:16:46;;;;;;;4.25;2.30;;;26.40;99.90;;;;;;5059653;28;20521;-74
2022/08/10 10:19:25;;;;;;;7.43;2.60;;;26.80;99.90;;;;;;5068306;28;20487;-74
2022/08/10 10:22:00;;;;;;;6.05;2.70;;;25.40;99.90;;;;;;5069142;28;20475;-74
2022/08/10 10:24:45;;;;;;;7.77;2.70;;;27.30;99.90;;;;;;5089184;28;20465;-74
2022/08/10 10:27:36;;;;;;;3.70;2.00;;;26.90;99.90;;;;;;5087344;28;20414;-75
2022/08/10 10:30:05;;;;;;;5.75;2.40;;;27.50;99.90;;;;;;5086214;28;20413;-75
2022/08/10 10:32:45;;;;;;;4.80;2.10;;;27.40;99.90;;;;;;5090970;28;20425;-74
2022/08/10 10:35:30;;;;;;;4.93;2.10;;;27.60;99.90;;;;;;5056948;28;20909;-74
2022/08/10 10:37:57;;;;;;;5.57;2.20;;;27.50;99.90;;;;;;5061043;28;20560;-74
2022/08/10 10:40:27;;;;;;;4.93;2.00;;;27.10;99.90;;;;;;5069047;28;20758;-74
2022/08/10 10:43:23;;;;;;;5.32;2.10;;;27.20;99.90;;;;;;5057718;28;20553;-74
2022/08/10 10:46:15;;;;;;;5.73;2.03;;;27.10;99.90;;;;;;5048721;28;20534;-74
2022/08/10 10:48:56;;;;;;;4.18;1.80;;;26.90;99.90;;;;;;5103968;28;20554;-74
2022/08/10 10:51:36;;;;;;;3.70;1.90;;;27.40;99.90;;;;;;5054413;28;20448;-74
2022/08/10 10:54:34;;;;;;;4.57;2.17;;;27.50;99.90;;;;;;5085721;28;20421;-74
2022/08/10 10:57:46;;;;;;;4.57;1.88;;;27.30;99.90;;;;;;5047967;28;20424;-74
2022/08/10 11:00:14;;;;;;;3.90;1.67;;;26.70;99.90;;;;;;5012476;28;20399;-74
2022/08/10 11:02:49;;;;;;;4.17;2.00;;;27.20;99.90;;;;;;5043864;28;20442;-74
2022/08/10 11:05:37;;;;;;;4.15;1.90;;;27.20;99.90;;;;;;5056797;28;20817;-74
2022/08/10 11:08:09;;;;;;;3.88;1.92;;;27.80;99.90;;;;;;5079591;28;20747;-74
2022/08/10 11:10:43;;;;;;;3.67;1.75;;;27.90;99.90;;;;;;5056336;28;20471;-74
2022/08/10 11:13:23;;;;;;;5.55;1.80;;;27.80;99.90;;;;;;5057195;28;20769;-74
2022/08/10 11:16:12;;;;;;;4.65;1.77;;;27.70;99.90;;;;;;5062681;28;20509;-75
2022/08/10 11:18:54;;;;;;;5.18;2.13;;;28.10;99.90;;;;;;5052589;28;20434;-74
2022/08/10 11:21:45;;;;;;;5.80;1.83;;;27.90;99.90;;;;;;5071805;28;20418;-74
2022/08/10 11:24:32;;;;;;;3.20;1.50;;;28.30;99.90;;;;;;5085338;28;20920;-73
2022/08/10 11:27:25;;;;;;;2.10;1.50;;;27.40;99.90;;;;;;5066997;28;20418;-74
2022/08/10 11:30:02;;;;;;;3.72;1.70;;;27.20;99.90;;;;;;5055757;28;20427;-75
2022/08/10 11:32:51;;;;;;;3.63;1.80;;;27.10;99.90;;;;;;5107069;28;20416;-75
2022/08/10 11:35:30;;;;;;;3.30;1.88;;;27.40;99.90;;;;;;5073256;28;20487;-74
2022/08/10 11:38:50;;;;;;;4.00;1.50;;;27.60;99.90;;;;;;5059161;28;20418;-75
2022/08/10 11:41:38;;;;;;;5.13;1.75;;;27.40;99.90;;;;;;5043209;28;20976;-75
2022/08/10 11:44:18;;;;;;;3.10;1.50;;;27.60;99.90;;;;;;5097640;28;20847;-75
2022/08/10 11:47:00;;;;;;;2.40;1.40;;;27.90;99.90;;;;;;5084782;28;20412;-75
2022/08/10 11:49:38;;;;;;;3.28;1.60;;;28.30;99.90;;;;;;5103159;28;20454;-75
2022/08/10 11:52:18;;;;;;;3.70;1.50;;;28.20;99.90;;;;;;5059816;28;20420;-75
2022/08/10 11:54:52;;;;;;;3.67;1.70;;;28.60;99.90;;;;;;5055428;28;20810;-75
2022/08/10 11:57:19;;;;;;;4.32;1.70;;;28.30;99.90;;;;;;5056143;28;20424;-76
2022/08/10 11:59:57;;;;;;;4.30;1.63;;;28.50;99.90;;;;;;5057900;28;20420;-75
2022/08/10 12:02:36;;;;;;;4.63;1.50;;;28.50;99.90;;;;;;5060371;28;20398;-75
2022/08/10 12:05:05;;;;;;;3.83;1.65;;;28.50;99.90;;;;;;5074148;28;20422;-76
2022/08/10 12:07:31;;;;;;;3.47;1.58;;;29.20;99.90;;;;;;5054899;28;20953;-76
2022/08/10 12:09:59;;;;;;;4.75;1.67;;;29.60;99.90;;;;;;5073946;28;20547;-76
2022/08/10 12:12:29;;;;;;;3.65;1.50;;;28.50;99.90;;;;;;5109801;28;20922;-76
2022/08/10 12:15:09;;;;;;;4.03;1.83;;;29.60;99.90;;;;;;5074205;28;20458;-76
2022/08/10 12:17:57;;;;;;;2.67;1.48;;;29.60;99.90;;;;;;5071505;28;21228;-76
2022/08/10 12:20:43;;;;;;;4.53;1.52;;;30.10;99.90;;;;;;5107148;28;20988;-76
2022/08/10 12:23:44;;;;;;;4.00;1.67;;;29.80;99.90;;;;;;5050101;28;20429;-76
2022/08/10 12:26:12;;;;;;;4.28;1.63;;;30.00;99.90;;;;;;5026752;28;21075;-76
2022/08/10 12:28:52;;;;;;;4.35;1.60;;;29.90;99.90;;;;;;5077734;28;21376;-76
2022/08/10 12:31:31;;;;;;;3.38;1.60;;;30.00;99.90;;;;;;5064511;28;20465;-77
2022/08/10 12:34:23;;;;;;;3.90;1.50;;;29.90;99.90;;;;;;5081762;28;20434;-76
2022/08/10 12:36:59;;;;;;;4.55;1.50;;;29.30;99.90;;;;;;5066209;28;20461;-76
2022/08/10 12:39:28;;;;;;;2.78;1.60;;;29.10;99.90;;;;;;5061369;28;20414;-76
2022/08/10 12:42:14;;;;;;;4.45;1.80;;;29.00;99.90;;;;;;5061247;28;20410;-76
2022/08/10 12:44:59;;;;;;;3.85;1.60;;;29.60;99.90;;;;;;5095769;28;20449;-76
2022/08/10 12:47:34;;;;;;;3.77;1.60;;;29.70;99.90;;;;;;5047331;28;20429;-76
2022/08/10 12:50:18;;;;;;;4.70;1.60;;;29.50;99.90;;;;;;5074199;28;20795;-75
2022/08/10 12:52:49;;;;;;;3.55;1.55;;;29.70;99.90;;;;;;5062600;28;20457;-76
2022/08/10 12:55:16;;;;;;;5.07;1.80;;;30.00;99.90;;;;;;5092518;28;20417;-76
2022/08/10 12:57:48;;;;;;;3.47;1.52;;;30.10;99.90;;;;;;5091063;28;20431;-76
2022/08/10 13:00:15;;;;;;;2.83;1.23;;;30.00;99.80;;;;;;5097224;28;20440;-76
2022/08/10 13:02:44;;;;;;;4.00;1.58;;;30.00;99.90;;;;;;5059434;28;20415;-76
2022/08/10 13:05:12;;;;;;;3.15;1.70;;;29.20;99.90;;;;;;5064910;28;20440;-76
2022/08/10 13:07:40;;;;;;;4.50;1.60;;;28.80;99.90;;;;;;5107749;28;20956;-76
2022/08/10 13:10:07;;;;;;;3.17;1.50;;;29.60;99.90;;;;;;5071920;28;20476;-76
2022/08/10 13:12:37;;;;;;;5.72;1.63;;;30.20;99.90;;;;;;5087339;28;20422;-76
2022/08/10 13:15:11;;;;;;;3.72;1.70;;;30.10;99.90;;;;;;5052590;28;20525;-76
2022/08/10 13:17:38;;;;;;;5.45;1.98;;;30.20;99.70;;;;;;5046799;28;20522;-75
2022/08/10 13:20:14;;;;;;;4.93;1.77;;;30.80;99.90;;;;;;5064571;28;20422;-76
2022/08/10 13:22:41;;;;;;;5.22;2.00;;;30.60;99.90;;;;;;5054844;28;20425;-76
2022/08/10 13:25:10;;;;;;;3.40;1.60;;;30.90;99.90;;;;;;5072279;28;20918;-76
2022/08/10 13:27:41;;;;;;;3.75;1.80;;;30.50;99.90;;;;;;5072231;28;20932;-76
2022/08/10 13:30:07;;;;;;;3.60;1.90;;;30.60;99.90;;;;;;5069457;28;20426;-75
2022/08/10 13:32:36;;;;;;;5.05;1.60;;;30.60;99.90;;;;;;5069728;28;20498;-75
2022/08/10 13:35:08;;;;;;;4.87;1.60;;;28.30;98.90;;;;;;5095869;28;21089;-75
2022/08/10 13:37:36;;;;;;;3.73;1.53;;;30.30;98.90;;;;;;5100341;28;20755;-75
2022/08/10 13:40:04;;;;;;;5.80;1.70;;;31.10;99.00;;;;;;5061655;28;20440;-75
2022/08/10 13:42:34;;;;;;;2.28;1.60;;;30.90;99.00;;;;;;5070633;28;20414;-74